Time,TemperatureF,DewpointF,PressureIn,WindDirection,WindDirectionDegrees,WindSpeedMPH,WindSpeedGustMPH,Humidity,HourlyPrecipIn,Conditions,Clouds,dailyrainin,SoftwareType,DateUTC
2013-10-29 00:00:00,68.5,68.0,29.93,SSE,157,12.5,-999.0,98,-99.99,,,0.00,Acu-Link.com,2013-10-29 05:00:00,
2013-10-29 00:16:00,68.4,67.8,29.93,SE,135,11.0,-999.0,98,-99.99,,,0.00,Acu-Link.com,2013-10-29 05:16:00,
2013-10-29 00:31:00,68.7,68.1,29.92,SE,135,11.0,-999.0,98,-99.99,,,0.00,Acu-Link.com,2013-10-29 05:31:00,
2013-10-29 00:46:00,68.5,68.0,29.92,South,180,8.3,-999.0,98,-99.99,,,0.00,Acu-Link.com,2013-10-29 05:46:00,
2013-10-29 01:01:00,68.7,68.1,29.92,SSE,157,9.8,-999.0,98,-99.99,,,0.00,Acu-Link.com,2013-10-29 06:01:00,
2013-10-29 01:16:00,68.5,68.0,29.92,SE,135,11.9,-999.0,98,-99.99,,,0.00,Acu-Link.com,2013-10-29 06:16:00,
2013-10-29 01:32:00,68.4,67.8,29.91,South,180,10.3,-999.0,98,-99.99,,,0.00,Acu-Link.com,2013-10-29 06:32:00,
2013-10-29 01:47:00,68.4,67.8,29.91,SSE,157,11.9,-999.0,98,-99.99,,,0.00,Acu-Link.com,2013-10-29 06:47:00,
2013-10-29 02:02:00,68.2,67.6,29.90,ESE,112,11.0,-999.0,98,-99.99,,,0.00,Acu-Link.com,2013-10-29 07:02:00,
2013-10-29 02:17:00,68.4,67.8,29.90,South,180,7.8,-999.0,98,-99.99,,,0.00,Acu-Link.com,2013-10-29 07:17:00,
2013-10-29 02:32:00,68.4,67.8,29.89,SSE,157,12.5,-999.0,98,-99.99,,,0.00,Acu-Link.com,2013-10-29 07:32:00,
2013-10-29 02:47:00,68.4,67.8,29.90,SSE,157,11.4,-999.0,98,-99.99,,,0.00,Acu-Link.com,2013-10-29 07:47:00,
2013-10-29 03:02:00,68.4,67.8,29.90,South,180,8.3,-999.0,98,-99.99,,,0.00,Acu-Link.com,2013-10-29 08:02:00,
2013-10-29 03:18:00,68.5,68.0,29.90,SE,135,8.9,-999.0,98,-99.99,,,0.00,Acu-Link.com,2013-10-29 08:18:00,
2013-10-29 03:33:00,68.5,68.0,29.90,SSE,157,7.4,-999.0,98,-99.99,,,0.00,Acu-Link.com,2013-10-29 08:33:00,
2013-10-29 03:48:00,68.7,68.1,29.90,SSE,157,9.4,-999.0,98,-99.99,,,0.00,Acu-Link.com,2013-10-29 08:48:00,
2013-10-29 04:03:00,68.5,68.0,29.90,South,180,6.7,-999.0,98,-99.99,,,0.00,Acu-Link.com,2013-10-29 09:03:00,
2013-10-29 04:18:00,68.4,67.8,29.90,South,180,9.8,-999.0,98,-99.99,,,0.00,Acu-Link.com,2013-10-29 09:18:00,
2013-10-29 04:34:00,68.2,67.6,29.90,SSE,157,7.4,-999.0,98,-99.99,,,0.00,Acu-Link.com,2013-10-29 09:34:00,
2013-10-29 04:49:00,68.0,67.4,29.90,South,180,9.4,-999.0,98,-99.99,,,0.00,Acu-Link.com,2013-10-29 09:49:00,
2013-10-29 05:04:00,67.6,67.1,29.90,ESE,112,9.8,-999.0,98,-99.99,,,0.00,Acu-Link.com,2013-10-29 10:04:00,
2013-10-29 05:19:00,67.6,67.1,29.90,SE,135,6.3,-999.0,98,-99.99,,,0.00,Acu-Link.com,2013-10-29 10:19:00,
2013-10-29 05:34:00,67.5,66.9,29.90,SSE,157,6.3,-999.0,98,-99.99,,,0.00,Acu-Link.com,2013-10-29 10:34:00,
2013-10-29 05:50:00,67.6,67.1,29.90,SSE,157,6.3,-999.0,98,-99.99,,,0.00,Acu-Link.com,2013-10-29 10:50:00,
2013-10-29 06:05:00,67.5,66.9,29.91,SSE,157,6.7,-999.0,98,-99.99,,,0.00,Acu-Link.com,2013-10-29 11:05:00,
2013-10-29 06:20:00,67.5,66.9,29.91,SSE,157,5.1,-999.0,98,-99.99,,,0.00,Acu-Link.com,2013-10-29 11:20:00,
2013-10-29 06:35:00,67.5,66.9,29.92,South,180,5.8,-999.0,98,-99.99,,,0.00,Acu-Link.com,2013-10-29 11:35:00,
2013-10-29 06:51:00,67.5,66.9,29.92,SE,135,7.4,-999.0,98,-99.99,,,0.00,Acu-Link.com,2013-10-29 11:51:00,
2013-10-29 07:06:00,67.5,66.9,29.92,SSE,157,5.1,-999.0,98,-99.99,,,0.00,Acu-Link.com,2013-10-29 12:06:00,
2013-10-29 07:21:00,67.5,66.9,29.92,SE,135,7.8,-999.0,98,-99.99,,,0.00,Acu-Link.com,2013-10-29 12:21:00,
2013-10-29 07:36:00,67.5,66.9,29.92,South,180,6.7,-999.0,98,-99.99,,,0.00,Acu-Link.com,2013-10-29 12:36:00,
2013-10-29 07:51:00,67.8,67.2,29.92,SE,135,9.4,-999.0,98,-99.99,,,0.00,Acu-Link.com,2013-10-29 12:51:00,
2013-10-29 08:07:00,68.2,67.6,29.92,SSE,157,8.3,-999.0,98,-99.99,,,0.00,Acu-Link.com,2013-10-29 13:07:00,
2013-10-29 08:22:00,68.4,67.8,29.91,SSE,157,8.3,-999.0,98,-99.99,,,0.00,Acu-Link.com,2013-10-29 13:22:00,
2013-10-29 08:37:00,68.4,67.8,29.92,SSE,157,8.3,-999.0,98,-99.99,,,0.00,Acu-Link.com,2013-10-29 13:37:00,
2013-10-29 08:52:00,68.9,68.3,29.94,South,180,5.8,-999.0,98,-99.99,,,0.00,Acu-Link.com,2013-10-29 13:52:00,
2013-10-29 09:07:00,69.1,68.5,29.94,SSE,157,8.3,-999.0,98,-99.99,,,0.00,Acu-Link.com,2013-10-29 14:07:00,
2013-10-29 09:23:00,69.6,69.0,29.94,SSE,157,8.3,-999.0,98,-99.99,,,0.00,Acu-Link.com,2013-10-29 14:23:00,
2013-10-29 09:38:00,70.7,70.1,29.93,SSW,202,9.8,-999.0,98,-99.99,,,0.00,Acu-Link.com,2013-10-29 14:38:00,
2013-10-29 09:53:00,71.1,70.5,29.95,South,180,7.4,-999.0,98,-99.99,,,0.00,Acu-Link.com,2013-10-29 14:53:00,
2013-10-29 10:08:00,71.2,70.6,29.95,SSE,157,7.4,-999.0,98,-99.99,,,0.00,Acu-Link.com,2013-10-29 15:08:00,
2013-10-29 10:23:00,72.9,70.7,29.95,South,180,9.8,-999.0,93,-99.99,,,0.00,Acu-Link.com,2013-10-29 15:23:00,
2013-10-29 10:39:00,73.4,70.6,29.95,South,180,7.4,-999.0,91,-99.99,,,0.00,Acu-Link.com,2013-10-29 15:39:00,
2013-10-29 10:54:00,75.0,70.5,29.93,South,180,13.0,-999.0,86,-99.99,,,0.00,Acu-Link.com,2013-10-29 15:54:00,
2013-10-29 11:09:00,76.1,70.5,29.93,SSW,202,16.6,-999.0,83,-99.99,,,0.00,Acu-Link.com,2013-10-29 16:09:00,
2013-10-29 11:24:00,76.3,70.4,29.93,SSW,202,10.3,-999.0,82,-99.99,,,0.00,Acu-Link.com,2013-10-29 16:24:00,
2013-10-29 11:39:00,76.8,70.2,29.93,SSW,202,13.0,-999.0,80,-99.99,,,0.00,Acu-Link.com,2013-10-29 16:39:00,
2013-10-29 11:55:00,77.9,70.5,29.92,SW,225,15.0,-999.0,78,-99.99,,,0.00,Acu-Link.com,2013-10-29 16:55:00,
2013-10-29 12:10:00,78.3,70.8,29.92,SSE,157,9.8,-999.0,78,-99.99,,,0.00,Acu-Link.com,2013-10-29 17:10:00,
2013-10-29 12:25:00,79.7,71.1,29.91,SW,225,9.4,-999.0,75,-99.99,,,0.00,Acu-Link.com,2013-10-29 17:25:00,
2013-10-29 12:40:00,80.4,70.1,29.89,South,180,8.3,-999.0,71,-99.99,,,0.00,Acu-Link.com,2013-10-29 17:40:00,
2013-10-29 12:56:00,81.7,70.1,29.89,South,180,5.8,-999.0,68,-99.99,,,0.00,Acu-Link.com,2013-10-29 17:56:00,
2013-10-29 13:11:00,82.6,69.6,29.90,WSW,247,7.4,-999.0,65,-99.99,,,0.00,Acu-Link.com,2013-10-29 18:11:00,
2013-10-29 13:26:00,82.4,69.4,29.89,SSW,202,7.8,-999.0,65,-99.99,,,0.00,Acu-Link.com,2013-10-29 18:26:00,
2013-10-29 13:41:00,82.4,69.9,29.88,South,180,12.5,-999.0,66,-99.99,,,0.00,Acu-Link.com,2013-10-29 18:41:00,
2013-10-29 13:56:00,82.4,69.4,29.87,South,180,0.0,-999.0,65,-99.99,,,0.00,Acu-Link.com,2013-10-29 18:56:00,
2013-10-29 14:12:00,82.0,70.0,29.86,South,180,9.4,-999.0,67,-99.99,,,0.00,Acu-Link.com,2013-10-29 19:12:00,
2013-10-29 14:27:00,81.9,69.8,29.86,South,180,8.9,-999.0,67,-99.99,,,0.00,Acu-Link.com,2013-10-29 19:27:00,
2013-10-29 14:42:00,82.0,69.5,29.85,SW,225,5.8,-999.0,66,-99.99,,,0.00,Acu-Link.com,2013-10-29 19:42:00,
2013-10-29 14:57:00,81.9,69.8,29.84,SSW,202,8.9,-999.0,67,-99.99,,,0.00,Acu-Link.com,2013-10-29 19:57:00,
2013-10-29 15:12:00,82.0,69.5,29.85,South,180,11.4,-999.0,66,-99.99,,,0.00,Acu-Link.com,2013-10-29 20:12:00,
2013-10-29 15:28:00,82.0,70.0,29.85,SSW,202,14.1,-999.0,67,-99.99,,,0.00,Acu-Link.com,2013-10-29 20:28:00,
2013-10-29 15:43:00,81.9,70.2,29.85,SSW,202,11.9,-999.0,68,-99.99,,,0.00,Acu-Link.com,2013-10-29 20:43:00,
2013-10-29 15:58:00,81.9,69.8,29.85,South,180,7.4,-999.0,67,-99.99,,,0.00,Acu-Link.com,2013-10-29 20:58:00,
2013-10-29 16:13:00,81.7,70.5,29.84,South,180,12.5,-999.0,69,-99.99,,,0.00,Acu-Link.com,2013-10-29 21:13:00,
2013-10-29 16:28:00,81.5,69.9,29.84,SW,225,13.4,-999.0,68,-99.99,,,0.00,Acu-Link.com,2013-10-29 21:28:00,
2013-10-29 16:44:00,81.3,70.6,29.84,SSW,202,11.0,-999.0,70,-99.99,,,0.00,Acu-Link.com,2013-10-29 21:44:00,
2013-10-29 16:59:00,80.8,70.5,29.84,South,180,9.4,-999.0,71,-99.99,,,0.00,Acu-Link.com,2013-10-29 21:59:00,
2013-10-29 17:14:00,80.8,70.1,29.84,South,180,8.3,-999.0,70,-99.99,,,0.00,Acu-Link.com,2013-10-29 22:14:00,
2013-10-29 17:29:00,81.1,70.4,29.84,SSW,202,7.8,-999.0,70,-99.99,,,0.00,Acu-Link.com,2013-10-29 22:29:00,
2013-10-29 17:45:00,80.8,70.1,29.84,South,180,7.8,-999.0,70,-99.99,,,0.00,Acu-Link.com,2013-10-29 22:45:00,
2013-10-29 18:00:00,80.8,70.1,29.84,SSW,202,8.3,-999.0,70,-99.99,,,0.00,Acu-Link.com,2013-10-29 23:00:00,
2013-10-29 18:15:00,81.5,70.3,29.84,South,180,7.4,-999.0,69,-99.99,,,0.00,Acu-Link.com,2013-10-29 23:15:00,
2013-10-29 18:30:00,80.4,70.1,29.84,South,180,7.8,-999.0,71,-99.99,,,0.00,Acu-Link.com,2013-10-29 23:30:00,
2013-10-29 18:45:00,79.9,70.4,29.86,SSW,202,4.3,-999.0,73,-99.99,,,0.00,Acu-Link.com,2013-10-29 23:45:00,
2013-10-29 19:01:00,78.8,69.8,29.85,South,180,4.7,-999.0,74,-99.99,,,0.00,Acu-Link.com,2013-10-30 00:01:00,
2013-10-29 19:16:00,78.1,69.9,29.86,SSE,157,0.0,-999.0,76,-99.99,,,0.00,Acu-Link.com,2013-10-30 00:16:00,
2013-10-29 19:31:00,77.0,69.2,29.86,SE,135,0.0,-999.0,77,-99.99,,,0.00,Acu-Link.com,2013-10-30 00:31:00,
2013-10-29 19:46:00,76.5,69.8,29.87,South,180,0.0,-999.0,80,-99.99,,,0.00,Acu-Link.com,2013-10-30 00:46:00,
2013-10-29 20:01:00,76.1,70.2,29.88,SSE,157,0.0,-999.0,82,-99.99,,,0.00,Acu-Link.com,2013-10-30 01:01:00,
2013-10-29 20:17:00,75.4,70.2,29.88,SSE,157,6.3,-999.0,84,-99.99,,,0.00,Acu-Link.com,2013-10-30 01:17:00,
2013-10-29 20:32:00,74.8,70.0,29.89,SSE,157,4.7,-999.0,85,-99.99,,,0.00,Acu-Link.com,2013-10-30 01:32:00,
2013-10-29 20:47:00,74.1,70.3,29.89,SE,135,5.1,-999.0,88,-99.99,,,0.00,Acu-Link.com,2013-10-30 01:47:00,
2013-10-29 21:02:00,73.8,70.6,29.90,SE,135,4.7,-999.0,90,-99.99,,,0.00,Acu-Link.com,2013-10-30 02:02:00,
2013-10-29 21:17:00,73.8,70.6,29.90,South,180,7.4,-999.0,90,-99.99,,,0.00,Acu-Link.com,2013-10-30 02:17:00,
2013-10-29 21:33:00,73.4,70.9,29.90,ESE,112,7.8,-999.0,92,-99.99,,,0.00,Acu-Link.com,2013-10-30 02:33:00,
2013-10-29 21:48:00,73.4,71.6,29.90,SSE,157,7.8,-999.0,94,-99.99,,,0.00,Acu-Link.com,2013-10-30 02:48:00,
2013-10-29 22:03:00,73.4,71.9,29.90,SSE,157,7.4,-999.0,95,-99.99,,,0.00,Acu-Link.com,2013-10-30 03:03:00,
2013-10-29 22:18:00,73.0,72.4,29.90,SE,135,7.4,-999.0,98,-99.99,,,0.00,Acu-Link.com,2013-10-30 03:18:00,
2013-10-29 22:34:00,72.1,71.5,29.90,ESE,112,8.3,-999.0,98,-99.99,,,0.00,Acu-Link.com,2013-10-30 03:34:00,
2013-10-29 22:49:00,71.8,71.2,29.90,SSE,157,7.4,-999.0,98,-99.99,,,0.00,Acu-Link.com,2013-10-30 03:49:00,
2013-10-29 23:04:00,71.2,70.6,29.90,SSE,157,6.7,-999.0,98,-99.99,,,0.00,Acu-Link.com,2013-10-30 04:04:00,
2013-10-29 23:19:00,70.7,70.1,29.90,SSE,157,4.7,-999.0,98,-99.99,,,0.00,Acu-Link.com,2013-10-30 04:19:00,
2013-10-29 23:34:00,70.7,70.1,29.91,SSE,157,6.3,-999.0,98,-99.99,,,0.00,Acu-Link.com,2013-10-30 04:34:00,
2013-10-29 23:49:00,70.7,70.1,29.91,SSE,157,0.0,-999.0,98,-99.99,,,0.00,Acu-Link.com,2013-10-30 04:49:00,